Time;durP1;ratioP1;P1;durP2;ratioP2;P2;SDS_P1;SDS_P2;PMS_P1;PMS_P2;Temp;Humidity;BMP_temperature;BMP_pressure;BME280_temperature;BME280_humidity;BME280_pressure;Samples;Min_cycle;Max_cycle;Signal;HPM_P1;HPM_P2
2020/12/22 00:01:11;;;;;;;0.70;0.40;;;12.30;99.90;;;;;;4973076;28;20458;-79
2020/12/22 00:03:37;;;;;;;0.50;0.30;;;12.30;99.90;;;;;;4974128;28;20425;-79
2020/12/22 00:06:03;;;;;;;0.50;0.40;;;12.40;99.90;;;;;;4972453;28;20493;-81
2020/12/22 00:08:28;;;;;;;0.50;0.30;;;12.40;99.90;;;;;;4973864;28;20171;-79
2020/12/22 00:10:54;;;;;;;0.50;0.30;;;12.40;99.90;;;;;;5004696;28;21006;-78
2020/12/22 00:13:20;;;;;;;0.50;0.40;;;12.40;99.90;;;;;;4973220;28;20558;-78
2020/12/22 00:15:45;;;;;;;0.60;0.50;;;12.50;99.90;;;;;;4972732;28;20215;-78
2020/12/22 00:18:12;;;;;;;0.90;0.40;;;12.50;99.90;;;;;;4973623;28;20189;-79
2020/12/22 00:20:37;;;;;;;0.50;0.30;;;12.60;99.90;;;;;;4976065;28;20248;-78
2020/12/22 00:23:04;;;;;;;0.47;0.30;;;12.60;99.90;;;;;;4973305;28;20436;-76
2020/12/22 00:25:30;;;;;;;0.43;0.30;;;12.70;99.90;;;;;;4973732;28;20215;-80
2020/12/22 00:27:55;;;;;;;0.63;0.30;;;12.70;99.90;;;;;;4973465;28;20430;-77
2020/12/22 00:30:22;;;;;;;1.53;0.30;;;12.80;99.90;;;;;;4973659;28;20488;-77
2020/12/22 00:32:48;;;;;;;0.50;0.30;;;12.70;99.90;;;;;;4976596;28;20237;-79
2020/12/22 00:35:13;;;;;;;0.60;0.40;;;12.80;99.90;;;;;;4975273;28;20513;-80
2020/12/22 00:37:39;;;;;;;0.57;0.40;;;12.70;99.90;;;;;;4975905;28;20219;-78
2020/12/22 00:40:05;;;;;;;0.50;0.40;;;12.70;99.90;;;;;;4974260;28;20546;-78
2020/12/22 00:42:31;;;;;;;0.70;0.40;;;12.80;99.90;;;;;;4974288;28;20199;-77
2020/12/22 00:44:58;;;;;;;1.37;0.30;;;12.70;99.90;;;;;;4974001;28;20214;-79
2020/12/22 00:47:24;;;;;;;0.53;0.37;;;12.70;99.90;;;;;;4972514;28;20422;-79
2020/12/22 00:49:50;;;;;;;0.50;0.30;;;12.70;99.90;;;;;;4972613;28;20460;-79
2020/12/22 00:52:16;;;;;;;0.90;0.33;;;12.80;99.90;;;;;;4974590;28;20537;-80
2020/12/22 00:54:42;;;;;;;0.40;0.27;;;12.90;99.90;;;;;;4972926;28;20459;-77
2020/12/22 00:57:08;;;;;;;0.87;0.50;;;12.80;99.90;;;;;;4974199;28;20446;-78
2020/12/22 00:59:37;;;;;;;0.40;0.30;;;12.70;99.90;;;;;;4974498;28;20235;-78
2020/12/22 01:02:05;;;;;;;0.50;0.30;;;12.80;99.90;;;;;;4974936;28;20473;-79
2020/12/22 01:04:31;;;;;;;0.50;0.43;;;12.90;99.90;;;;;;4976373;28;20446;-78
2020/12/22 01:06:57;;;;;;;1.53;0.40;;;12.80;99.90;;;;;;4974283;28;20941;-79
2020/12/22 01:09:23;;;;;;;0.93;0.47;;;12.80;99.90;;;;;;4974240;28;20419;-77
2020/12/22 01:11:48;;;;;;;1.27;0.60;;;12.90;99.90;;;;;;4973988;28;20198;-79
2020/12/22 01:14:14;;;;;;;0.60;0.50;;;13.00;99.90;;;;;;4975160;28;20557;-80
2020/12/22 01:16:39;;;;;;;2.57;0.37;;;13.00;99.90;;;;;;4975804;28;20554;-79
2020/12/22 01:19:05;;;;;;;0.60;0.30;;;13.10;99.90;;;;;;4976318;28;20203;-77
2020/12/22 01:21:31;;;;;;;0.60;0.40;;;13.20;99.90;;;;;;4976475;28;20266;-79
2020/12/22 01:23:56;;;;;;;0.60;0.37;;;13.10;99.90;;;;;;4977882;28;20182;-77
2020/12/22 01:26:24;;;;;;;1.10;0.40;;;13.10;99.90;;;;;;4978502;28;20250;-78
2020/12/22 01:28:52;;;;;;;1.33;0.43;;;13.00;99.90;;;;;;4978311;28;20638;-80
2020/12/22 01:31:29;;;;;;;2.17;0.60;;;13.00;99.90;;;;;;4976871;28;20463;-77
2020/12/22 01:33:57;;;;;;;0.50;0.30;;;12.90;99.90;;;;;;4977883;28;20429;-77
2020/12/22 01:36:23;;;;;;;0.40;0.30;;;12.90;99.90;;;;;;4976973;28;20462;-80
2020/12/22 01:38:50;;;;;;;0.60;0.60;;;12.90;99.90;;;;;;4978472;28;20535;-77
2020/12/22 01:41:16;;;;;;;0.60;0.60;;;12.80;99.90;;;;;;4977000;28;20458;-76
2020/12/22 01:43:42;;;;;;;0.70;0.53;;;12.80;99.90;;;;;;4974967;28;20438;-75
2020/12/22 01:46:09;;;;;;;0.70;0.50;;;12.90;99.90;;;;;;4974789;28;20491;-78
2020/12/22 01:48:36;;;;;;;0.70;0.50;;;12.90;99.90;;;;;;4976995;28;20435;-79
2020/12/22 01:51:03;;;;;;;0.60;0.40;;;12.90;99.90;;;;;;4977617;28;20462;-77
2020/12/22 01:53:29;;;;;;;1.23;0.50;;;12.90;99.90;;;;;;4976922;28;20450;-78
2020/12/22 01:55:55;;;;;;;2.00;0.43;;;12.90;99.90;;;;;;4976952;28;21008;-79
2020/12/22 01:58:21;;;;;;;1.80;0.40;;;12.90;99.90;;;;;;4976973;28;20406;-77
2020/12/22 02:00:47;;;;;;;1.03;0.80;;;12.70;99.90;;;;;;4976709;28;20215;-78
2020/12/22 02:03:14;;;;;;;0.70;0.43;;;12.70;99.90;;;;;;4977864;28;20195;-77
2020/12/22 02:05:40;;;;;;;0.80;0.70;;;12.80;99.90;;;;;;4974584;28;20450;-79
2020/12/22 02:08:06;;;;;;;0.67;0.50;;;12.90;99.90;;;;;;4974978;28;20411;-77
2020/12/22 02:10:33;;;;;;;0.60;0.50;;;12.90;99.90;;;;;;4975749;28;20462;-77
2020/12/22 02:12:59;;;;;;;0.60;0.50;;;12.90;99.90;;;;;;4974699;28;20463;-76
2020/12/22 02:15:28;;;;;;;1.63;0.60;;;12.90;99.90;;;;;;4975210;28;20490;-77
2020/12/22 02:17:54;;;;;;;0.40;0.30;;;12.90;99.90;;;;;;4976024;28;20435;-74
2020/12/22 02:20:19;;;;;;;1.40;0.37;;;12.80;99.90;;;;;;4975926;28;20498;-78
2020/12/22 02:22:45;;;;;;;0.70;0.40;;;12.80;99.90;;;;;;4974082;28;20195;-76
2020/12/22 02:25:17;;;;;;;0.60;0.50;;;12.70;99.90;;;;;;4973736;28;20212;-78
2020/12/22 02:27:43;;;;;;;0.47;0.30;;;12.70;99.90;;;;;;4981006;28;20773;-77
2020/12/22 02:30:10;;;;;;;0.67;0.37;;;12.80;99.90;;;;;;4973836;28;20469;-78
2020/12/22 02:32:36;;;;;;;1.10;0.83;;;12.80;99.90;;;;;;4975141;28;20557;-78
2020/12/22 02:35:04;;;;;;;0.73;0.40;;;12.80;99.90;;;;;;4973987;28;20458;-78
2020/12/22 02:37:29;;;;;;;0.70;0.50;;;12.80;99.90;;;;;;4974623;28;20426;-76
2020/12/22 02:39:55;;;;;;;3.47;0.50;;;12.80;99.90;;;;;;4975920;28;20553;-78
2020/12/22 02:42:21;;;;;;;2.40;0.83;;;12.90;99.90;;;;;;4976141;28;20258;-78
2020/12/22 02:44:47;;;;;;;0.80;0.50;;;12.80;99.90;;;;;;4974973;28;20700;-76
2020/12/22 02:47:14;;;;;;;1.43;0.30;;;12.90;99.90;;;;;;4976307;28;20450;-75
2020/12/22 02:49:41;;;;;;;1.40;0.50;;;12.90;99.90;;;;;;4973661;28;20451;-78
2020/12/22 02:52:08;;;;;;;0.40;0.30;;;13.00;99.90;;;;;;4973455;28;20884;-79
2020/12/22 02:54:34;;;;;;;2.00;0.40;;;12.90;99.90;;;;;;4974658;28;20439;-77
2020/12/22 02:57:00;;;;;;;0.60;0.40;;;12.90;99.90;;;;;;4975496;28;20957;-78
2020/12/22 02:59:25;;;;;;;0.67;0.43;;;12.80;99.90;;;;;;4973922;28;20418;-79
2020/12/22 03:01:51;;;;;;;0.50;0.30;;;12.80;99.90;;;;;;4974177;28;20439;-78
2020/12/22 03:04:17;;;;;;;1.00;0.47;;;12.90;99.90;;;;;;4973395;28;20207;-78
2020/12/22 03:06:43;;;;;;;0.50;0.40;;;12.80;99.90;;;;;;4973104;28;20555;-78
2020/12/22 03:09:09;;;;;;;1.03;0.40;;;12.90;99.90;;;;;;4975381;28;20207;-80
2020/12/22 03:11:35;;;;;;;1.03;0.40;;;12.90;99.90;;;;;;4977422;28;20842;-78
2020/12/22 03:14:01;;;;;;;0.60;0.43;;;12.90;99.90;;;;;;4976375;28;20468;-78
2020/12/22 03:16:27;;;;;;;1.60;0.60;;;12.90;99.90;;;;;;4976490;28;20512;-80
2020/12/22 03:18:52;;;;;;;2.83;0.40;;;12.90;99.90;;;;;;4974602;28;20179;-80
2020/12/22 03:21:19;;;;;;;0.40;0.30;;;12.90;99.90;;;;;;4976220;28;20561;-79
2020/12/22 03:23:45;;;;;;;1.63;0.40;;;12.90;99.90;;;;;;4973442;28;20206;-80
2020/12/22 03:26:11;;;;;;;0.97;0.40;;;12.90;99.90;;;;;;4975484;28;20462;-77
2020/12/22 03:28:37;;;;;;;1.50;0.40;;;13.00;99.90;;;;;;4976960;28;20423;-77
2020/12/22 03:31:03;;;;;;;0.57;0.47;;;13.00;99.90;;;;;;4974881;28;20230;-79
2020/12/22 03:33:28;;;;;;;0.50;0.33;;;13.00;99.90;;;;;;4977300;28;20513;-78
2020/12/22 03:35:55;;;;;;;0.67;0.30;;;13.00;99.90;;;;;;4975135;28;20981;-80
2020/12/22 03:38:21;;;;;;;0.50;0.30;;;13.00;99.90;;;;;;4975689;28;20167;-81
2020/12/22 03:40:46;;;;;;;0.53;0.30;;;13.10;99.90;;;;;;4975114;28;20464;-78
2020/12/22 03:43:12;;;;;;;0.50;0.40;;;13.10;99.90;;;;;;4975546;28;20510;-79
2020/12/22 03:45:39;;;;;;;0.50;0.40;;;13.10;99.90;;;;;;4973665;28;20213;-77
2020/12/22 03:48:05;;;;;;;0.70;0.40;;;13.10;99.90;;;;;;4973711;28;20429;-79
2020/12/22 03:50:31;;;;;;;1.00;0.37;;;13.10;99.90;;;;;;4975753;28;20462;-79
2020/12/22 03:53:00;;;;;;;0.77;0.30;;;13.20;99.90;;;;;;4975158;28;20829;-79
2020/12/22 03:55:26;;;;;;;0.67;0.57;;;13.10;99.90;;;;;;4976073;28;20634;-79
2020/12/22 03:57:51;;;;;;;0.50;0.30;;;13.10;99.90;;;;;;4973664;28;20516;-78
2020/12/22 04:00:17;;;;;;;0.40;0.30;;;13.20;99.90;;;;;;4974508;28;20217;-79
2020/12/22 04:02:43;;;;;;;0.60;0.40;;;13.20;99.90;;;;;;4975896;28;20207;-81
2020/12/22 04:05:09;;;;;;;1.07;0.30;;;13.10;99.90;;;;;;4973428;28;20462;-78
2020/12/22 04:07:35;;;;;;;0.50;0.20;;;13.20;99.90;;;;;;4975593;28;20183;-79
2020/12/22 04:10:01;;;;;;;3.13;0.40;;;13.20;99.90;;;;;;4976119;28;20455;-79
2020/12/22 04:12:27;;;;;;;1.73;0.40;;;13.20;99.90;;;;;;4976362;28;20826;-80
2020/12/22 04:14:53;;;;;;;0.50;0.30;;;13.10;99.90;;;;;;4973688;28;20455;-78
2020/12/22 04:17:19;;;;;;;0.50;0.30;;;13.10;99.90;;;;;;4975184;28;20422;-78
2020/12/22 04:19:44;;;;;;;0.50;0.30;;;13.20;99.90;;;;;;4973649;28;20294;-76
2020/12/22 04:22:10;;;;;;;0.53;0.43;;;13.20;99.90;;;;;;4976979;28;21013;-78
2020/12/22 04:24:36;;;;;;;0.67;0.30;;;13.30;99.90;;;;;;4974245;28;20218;-78
2020/12/22 04:27:01;;;;;;;0.50;0.30;;;13.30;99.90;;;;;;4975593;28;20634;-78
2020/12/22 04:29:27;;;;;;;0.40;0.30;;;13.40;99.90;;;;;;4976960;28;20217;-79
2020/12/22 04:31:53;;;;;;;0.60;0.37;;;13.40;99.90;;;;;;4976377;28;20206;-80
2020/12/22 04:34:19;;;;;;;0.50;0.33;;;13.40;99.90;;;;;;4976929;28;20172;-79
2020/12/22 04:36:44;;;;;;;3.53;0.30;;;13.50;99.90;;;;;;4975481;28;20181;-78
2020/12/22 04:39:10;;;;;;;0.77;0.53;;;13.40;99.90;;;;;;4971727;28;20172;-85
2020/12/22 04:41:36;;;;;;;1.37;0.50;;;13.30;99.90;;;;;;4971407;28;20234;-83
2020/12/22 04:44:02;;;;;;;0.50;0.30;;;13.20;99.90;;;;;;4970564;28;20186;-84
2020/12/22 04:46:33;;;;;;;0.70;0.30;;;13.20;99.90;;;;;;4972381;28;20491;-85
2020/12/22 04:48:59;;;;;;;0.50;0.30;;;13.20;99.90;;;;;;4976487;28;20434;-84
2020/12/22 04:51:25;;;;;;;0.67;0.50;;;13.20;99.90;;;;;;4975607;28;20577;-84
2020/12/22 04:53:52;;;;;;;0.47;0.30;;;13.20;99.90;;;;;;4978095;28;20425;-81
2020/12/22 04:56:19;;;;;;;1.83;0.33;;;13.20;99.90;;;;;;4977407;28;20469;-83
2020/12/22 04:58:45;;;;;;;0.50;0.30;;;13.20;99.90;;;;;;4977240;28;20454;-77
2020/12/22 05:01:11;;;;;;;0.50;0.30;;;13.30;99.90;;;;;;4977158;28;20458;-79
2020/12/22 05:03:37;;;;;;;0.83;0.30;;;13.20;99.90;;;;;;4978081;28;20485;-81
2020/12/22 05:06:03;;;;;;;0.90;0.30;;;13.20;99.90;;;;;;4977077;28;20852;-82
2020/12/22 05:08:29;;;;;;;0.50;0.30;;;13.30;99.90;;;;;;4976039;28;20689;-81
2020/12/22 05:10:54;;;;;;;0.60;0.30;;;13.20;99.90;;;;;;4976356;28;20310;-77
2020/12/22 05:13:21;;;;;;;0.57;0.40;;;13.10;99.90;;;;;;4976690;28;20199;-78
2020/12/22 05:15:52;;;;;;;0.53;0.37;;;13.10;99.90;;;;;;4975605;28;20712;-83
2020/12/22 05:18:25;;;;;;;0.50;0.30;;;13.10;99.90;;;;;;4975455;28;20446;-82
2020/12/22 05:20:53;;;;;;;0.50;0.30;;;13.10;99.90;;;;;;4975014;28;20456;-77
2020/12/22 05:23:20;;;;;;;6.13;0.40;;;13.10;99.90;;;;;;4977165;28;20519;-84
2020/12/22 05:25:47;;;;;;;0.50;0.20;;;13.20;99.90;;;;;;4975292;28;20458;-81
2020/12/22 05:28:15;;;;;;;0.50;0.30;;;13.10;99.90;;;;;;4975814;28;20427;-80
2020/12/22 05:30:43;;;;;;;0.40;0.30;;;13.20;99.90;;;;;;4974999;28;20443;-79
2020/12/22 05:33:09;;;;;;;0.60;0.30;;;13.10;99.90;;;;;;4974498;28;20470;-78
2020/12/22 05:35:44;;;;;;;1.13;0.30;;;13.20;99.90;;;;;;4976934;28;20525;-82
2020/12/22 05:38:11;;;;;;;0.40;0.30;;;13.20;99.90;;;;;;4976537;28;20908;-79
2020/12/22 05:40:39;;;;;;;0.80;0.40;;;13.20;99.90;;;;;;4976026;28;20521;-79
2020/12/22 05:43:05;;;;;;;0.50;0.33;;;13.20;99.90;;;;;;4976550;28;20438;-80
2020/12/22 05:45:36;;;;;;;0.60;0.30;;;13.30;99.90;;;;;;4974345;28;20462;-80
2020/12/22 05:48:03;;;;;;;1.17;0.40;;;13.20;99.90;;;;;;4974567;28;20419;-77
2020/12/22 05:50:29;;;;;;;0.73;0.50;;;13.30;99.90;;;;;;4976598;28;20458;-80
2020/12/22 05:52:56;;;;;;;0.53;0.30;;;13.20;99.90;;;;;;4975859;28;20463;-82
2020/12/22 05:55:34;;;;;;;2.53;0.40;;;13.20;99.90;;;;;;4977181;28;20274;-78
2020/12/22 05:58:10;;;;;;;0.50;0.40;;;13.10;99.90;;;;;;4975297;28;20454;-79
2020/12/22 06:00:40;;;;;;;0.77;0.40;;;13.20;99.90;;;;;;4974923;28;20458;-83
2020/12/22 06:03:10;;;;;;;0.47;0.40;;;13.10;99.90;;;;;;4976091;28;20443;-83
2020/12/22 06:05:45;;;;;;;0.50;0.30;;;13.10;99.90;;;;;;4974784;28;20550;-79
2020/12/22 06:08:18;;;;;;;0.50;0.30;;;13.10;99.90;;;;;;4977616;28;20489;-82
2020/12/22 06:10:44;;;;;;;0.50;0.47;;;13.10;99.90;;;;;;4976423;28;20447;-83
2020/12/22 06:13:12;;;;;;;1.43;0.40;;;13.10;99.90;;;;;;4975311;28;20559;-82
2020/12/22 06:15:38;;;;;;;1.03;0.40;;;13.10;99.90;;;;;;4981427;28;20455;-78
2020/12/22 06:18:05;;;;;;;0.40;0.20;;;13.20;99.90;;;;;;4976324;28;20418;-79
2020/12/22 06:20:32;;;;;;;0.40;0.20;;;13.20;99.90;;;;;;4975250;28;20946;-80
2020/12/22 06:23:06;;;;;;;0.50;0.40;;;13.20;99.90;;;;;;4975576;28;20445;-79
2020/12/22 06:25:33;;;;;;;1.10;0.50;;;13.10;99.90;;;;;;4974896;28;20454;-81
2020/12/22 06:27:59;;;;;;;0.40;0.30;;;13.10;99.90;;;;;;4975752;28;20924;-76
2020/12/22 06:30:36;;;;;;;0.90;0.40;;;13.10;99.90;;;;;;4976425;28;20490;-82
2020/12/22 06:33:23;;;;;;;1.43;0.30;;;13.10;99.90;;;;;;4976346;28;20214;-81
2020/12/22 06:36:00;;;;;;;0.97;0.33;;;13.20;99.90;;;;;;4976704;28;20457;-81
2020/12/22 06:38:48;;;;;;;1.70;0.50;;;13.20;99.90;;;;;;4975996;28;20425;-81
2020/12/22 06:41:43;;;;;;;1.00;0.50;;;13.20;99.90;;;;;;4979711;28;20866;-77
2020/12/22 06:44:26;;;;;;;3.33;0.70;;;13.20;99.90;;;;;;4963706;28;20430;-83
2020/12/22 06:46:54;;;;;;;2.33;0.50;;;13.20;99.90;;;;;;4976573;28;20429;-80
2020/12/22 06:49:45;;;;;;;0.80;0.40;;;13.20;99.90;;;;;;4976171;28;20466;-81
2020/12/22 06:52:46;;;;;;;0.50;0.40;;;13.20;99.90;;;;;;4975419;28;20477;-81
2020/12/22 06:55:12;;;;;;;0.87;0.30;;;13.20;99.90;;;;;;4932285;28;20459;-80
2020/12/22 06:57:44;;;;;;;1.13;0.50;;;13.20;99.90;;;;;;4967058;28;20501;-80
2020/12/22 07:00:24;;;;;;;0.77;0.50;;;13.20;99.90;;;;;;4973367;28;20225;-79
2020/12/22 07:02:50;;;;;;;1.20;0.60;;;13.20;99.90;;;;;;4971733;28;20465;-82
2020/12/22 07:05:39;;;;;;;0.60;0.40;;;13.30;99.90;;;;;;4971816;28;20984;-80
2020/12/22 07:08:05;;;;;;;2.60;0.40;;;13.30;99.90;;;;;;4967345;28;20415;-82
2020/12/22 07:10:35;;;;;;;0.70;0.50;;;13.30;99.90;;;;;;4973094;28;21008;-81
2020/12/22 07:13:03;;;;;;;1.07;0.60;;;13.30;99.90;;;;;;4973979;28;21033;-79
2020/12/22 07:15:35;;;;;;;0.80;0.50;;;13.30;99.90;;;;;;4972912;28;20558;-81
2020/12/22 07:18:09;;;;;;;0.70;0.60;;;13.30;99.90;;;;;;4971507;28;20434;-80
2020/12/22 07:20:36;;;;;;;1.57;0.50;;;13.30;99.90;;;;;;4969826;28;20554;-80
2020/12/22 07:23:05;;;;;;;4.53;0.50;;;13.30;99.90;;;;;;4970230;28;20508;-78
2020/12/22 07:25:32;;;;;;;2.93;0.57;;;13.30;99.90;;;;;;4997318;28;20457;-80
2020/12/22 07:28:00;;;;;;;3.00;1.00;;;13.30;99.90;;;;;;4973750;28;20450;-82
2020/12/22 07:30:26;;;;;;;1.07;0.50;;;13.40;99.90;;;;;;4972762;28;20459;-80
2020/12/22 07:32:53;;;;;;;1.80;0.60;;;13.30;99.90;;;;;;4973221;28;20557;-80
2020/12/22 07:35:19;;;;;;;0.90;0.70;;;13.30;99.90;;;;;;4974551;28;20541;-81
2020/12/22 07:37:45;;;;;;;1.37;0.60;;;13.30;99.90;;;;;;4978141;28;20426;-78
2020/12/22 07:40:12;;;;;;;1.40;0.90;;;13.20;99.90;;;;;;4975834;28;20454;-77
2020/12/22 07:42:38;;;;;;;0.70;0.50;;;13.20;99.90;;;;;;4972274;28;20245;-79
2020/12/22 07:45:06;;;;;;;1.67;0.50;;;13.30;99.90;;;;;;4974001;28;20493;-78
2020/12/22 07:47:32;;;;;;;1.07;0.60;;;13.30;99.90;;;;;;4974957;28;20793;-79
2020/12/22 07:50:14;;;;;;;2.60;0.70;;;13.30;99.90;;;;;;4974641;28;20469;-77
2020/12/22 07:52:40;;;;;;;1.67;0.40;;;13.40;99.90;;;;;;4976167;28;20525;-79
2020/12/22 07:55:07;;;;;;;0.53;0.30;;;13.30;99.90;;;;;;4976110;28;20462;-76
2020/12/22 07:57:37;;;;;;;2.13;0.50;;;13.40;99.90;;;;;;4977410;28;20426;-79
2020/12/22 08:00:09;;;;;;;2.10;0.87;;;13.40;99.90;;;;;;4977594;28;20484;-79
2020/12/22 08:02:35;;;;;;;1.47;0.90;;;13.40;99.90;;;;;;4995987;28;20450;-80
2020/12/22 08:05:11;;;;;;;3.23;0.60;;;13.50;99.90;;;;;;4976053;28;20514;-77
2020/12/22 08:07:39;;;;;;;0.80;0.40;;;13.50;99.90;;;;;;4989372;28;20429;-77
2020/12/22 08:10:24;;;;;;;1.63;0.73;;;13.50;99.90;;;;;;4976560;28;20466;-77
2020/12/22 08:12:53;;;;;;;2.60;0.70;;;13.50;99.90;;;;;;4973624;28;20477;-80
2020/12/22 08:15:19;;;;;;;2.07;0.80;;;13.50;99.90;;;;;;4977643;28;20466;-77
2020/12/22 08:17:50;;;;;;;2.70;0.70;;;13.40;99.90;;;;;;4973143;28;20868;-78
2020/12/22 08:20:16;;;;;;;1.10;0.80;;;13.40;99.90;;;;;;4974279;28;20464;-79
2020/12/22 08:22:42;;;;;;;1.53;0.53;;;13.50;99.90;;;;;;4979677;28;20477;-79
2020/12/22 08:25:09;;;;;;;10.93;1.07;;;13.40;99.90;;;;;;4978745;28;20513;-79
2020/12/22 08:27:36;;;;;;;1.10;0.80;;;13.40;99.90;;;;;;4976515;28;21147;-82
2020/12/22 08:30:15;;;;;;;1.20;0.47;;;13.40;99.90;;;;;;4977784;28;20458;-80
2020/12/22 08:32:44;;;;;;;0.70;0.40;;;13.50;99.90;;;;;;4979915;28;20492;-77
2020/12/22 08:35:10;;;;;;;1.43;0.60;;;13.50;99.90;;;;;;4978726;28;20993;-79
2020/12/22 08:37:36;;;;;;;1.50;0.80;;;13.40;99.90;;;;;;4976163;28;20422;-79
2020/12/22 08:40:03;;;;;;;2.57;0.50;;;13.40;99.90;;;;;;4978293;28;20453;-79
2020/12/22 08:42:30;;;;;;;1.93;0.50;;;13.40;99.90;;;;;;4979906;28;20519;-79
2020/12/22 08:44:56;;;;;;;0.70;0.50;;;13.40;99.90;;;;;;4978043;28;20530;-78
2020/12/22 08:47:21;;;;;;;1.03;0.70;;;13.40;99.90;;;;;;4982180;28;20566;-78
2020/12/22 08:49:48;;;;;;;2.40;0.70;;;13.30;99.90;;;;;;4979015;28;20219;-78
2020/12/22 08:52:19;;;;;;;2.53;0.77;;;13.40;99.90;;;;;;4982539;28;20950;-79
2020/12/22 08:54:47;;;;;;;0.83;0.50;;;13.30;99.90;;;;;;4980279;28;20481;-77
2020/12/22 08:57:23;;;;;;;1.43;0.60;;;13.30;99.90;;;;;;4981722;28;20506;-77
2020/12/22 08:59:49;;;;;;;0.70;0.50;;;13.40;99.90;;;;;;4977377;28;20453;-78
2020/12/22 09:02:29;;;;;;;3.10;0.83;;;13.40;99.90;;;;;;4977337;28;20438;-79
2020/12/22 09:04:55;;;;;;;1.27;0.80;;;13.40;99.90;;;;;;4978267;28;21023;-78
2020/12/22 09:07:26;;;;;;;0.70;0.60;;;13.30;99.90;;;;;;4975015;28;20438;-79
2020/12/22 09:09:54;;;;;;;1.60;0.80;;;13.20;99.90;;;;;;4977711;28;20821;-75
2020/12/22 09:12:19;;;;;;;1.03;0.60;;;13.20;99.90;;;;;;4976535;28;20873;-78
2020/12/22 09:14:51;;;;;;;1.87;0.80;;;13.20;99.90;;;;;;4979428;28;20442;-79
2020/12/22 09:17:27;;;;;;;0.87;0.57;;;13.20;99.90;;;;;;4979301;28;20198;-78
2020/12/22 09:19:54;;;;;;;2.40;0.60;;;13.20;99.90;;;;;;4980149;28;20450;-78
2020/12/22 09:22:39;;;;;;;0.60;0.47;;;13.30;99.90;;;;;;4981248;28;20789;-77
2020/12/22 09:25:09;;;;;;;3.73;0.90;;;13.40;99.90;;;;;;4979382;28;20481;-77
2020/12/22 09:27:41;;;;;;;0.70;0.60;;;13.30;99.90;;;;;;4976651;28;20415;-82
2020/12/22 09:30:10;;;;;;;0.80;0.50;;;13.30;99.90;;;;;;4977704;28;20461;-80
2020/12/22 09:32:36;;;;;;;5.40;1.07;;;13.40;99.90;;;;;;4968696;28;20451;-81
2020/12/22 09:35:02;;;;;;;1.83;0.77;;;13.40;99.90;;;;;;4988913;28;20455;-80
2020/12/22 09:37:31;;;;;;;1.63;0.70;;;13.50;99.90;;;;;;4959884;28;20161;-81
2020/12/22 09:39:56;;;;;;;1.10;0.73;;;13.60;99.90;;;;;;4958496;28;20459;-80
2020/12/22 09:42:24;;;;;;;1.40;0.80;;;13.70;99.90;;;;;;4974117;28;20470;-77
2020/12/22 09:44:50;;;;;;;0.93;0.60;;;13.70;99.90;;;;;;4978595;28;20262;-78
2020/12/22 09:47:16;;;;;;;1.37;0.67;;;13.70;99.90;;;;;;4976594;28;20420;-77
2020/12/22 09:49:41;;;;;;;1.00;0.67;;;13.80;99.90;;;;;;4975705;28;20537;-80
2020/12/22 09:52:07;;;;;;;1.83;0.90;;;13.80;99.90;;;;;;4976009;28;20543;-79
2020/12/22 09:54:33;;;;;;;1.00;0.40;;;13.80;99.90;;;;;;4976328;28;20475;-77
2020/12/22 09:56:59;;;;;;;3.93;0.60;;;13.80;99.90;;;;;;4975777;28;20177;-77
2020/12/22 09:59:25;;;;;;;1.43;0.80;;;13.80;99.90;;;;;;4975350;28;20407;-78
2020/12/22 10:01:51;;;;;;;4.93;0.77;;;13.90;99.90;;;;;;4974281;28;20694;-78
2020/12/22 10:04:23;;;;;;;1.73;0.60;;;13.90;99.90;;;;;;4970569;28;20190;-77
2020/12/22 10:06:50;;;;;;;2.40;1.10;;;14.00;99.90;;;;;;4973506;28;20441;-77
2020/12/22 10:09:16;;;;;;;4.73;1.70;;;14.00;99.90;;;;;;4959999;28;20430;-78
2020/12/22 10:11:42;;;;;;;2.57;0.90;;;14.00;99.90;;;;;;4974104;28;21022;-77
2020/12/22 10:14:08;;;;;;;1.53;1.00;;;14.00;99.90;;;;;;4980690;28;20452;-80
2020/12/22 10:16:35;;;;;;;2.60;1.20;;;14.00;99.90;;;;;;4974409;28;20494;-78
2020/12/22 10:19:01;;;;;;;2.87;0.70;;;13.90;99.90;;;;;;4975990;28;20565;-76
2020/12/22 10:21:27;;;;;;;3.17;0.87;;;13.80;99.90;;;;;;4975682;28;20874;-79
2020/12/22 10:23:59;;;;;;;4.30;0.80;;;13.80;99.90;;;;;;4973806;28;20427;-77
2020/12/22 10:26:26;;;;;;;2.30;1.17;;;13.80;99.90;;;;;;4975437;28;20307;-78
2020/12/22 10:28:52;;;;;;;1.73;0.90;;;13.80;99.90;;;;;;4978189;28;20798;-77
2020/12/22 10:31:20;;;;;;;1.20;0.90;;;13.80;99.90;;;;;;4975792;28;20498;-77
2020/12/22 10:33:46;;;;;;;1.00;0.80;;;13.80;99.90;;;;;;4978230;28;20411;-79
2020/12/22 10:36:13;;;;;;;1.70;0.90;;;13.80;99.90;;;;;;4975111;28;20470;-77
2020/12/22 10:38:39;;;;;;;2.20;0.80;;;13.70;99.90;;;;;;4976105;28;20426;-80
2020/12/22 10:41:05;;;;;;;2.70;1.17;;;13.70;99.90;;;;;;4980880;28;20452;-80
2020/12/22 10:43:30;;;;;;;2.90;1.10;;;13.70;99.90;;;;;;4979291;28;20426;-77
2020/12/22 10:45:57;;;;;;;1.83;1.33;;;13.60;99.90;;;;;;4974404;28;20675;-77
2020/12/22 10:48:23;;;;;;;1.67;1.07;;;13.60;99.90;;;;;;4975120;28;20207;-79
2020/12/22 10:50:49;;;;;;;1.90;0.90;;;13.60;99.90;;;;;;4973324;28;21008;-78
2020/12/22 10:53:15;;;;;;;1.50;0.67;;;13.60;99.90;;;;;;4974498;28;20547;-79
2020/12/22 10:55:41;;;;;;;1.80;0.80;;;13.60;99.90;;;;;;4974708;28;20224;-78
2020/12/22 10:58:07;;;;;;;1.57;0.90;;;13.70;99.90;;;;;;4973876;28;20236;-79
2020/12/22 11:00:33;;;;;;;2.10;0.80;;;13.80;99.90;;;;;;4963906;28;20222;-79
2020/12/22 11:03:00;;;;;;;1.80;0.80;;;13.90;99.90;;;;;;4975214;28;20443;-80
2020/12/22 11:08:11;;;;;;;1.77;0.90;;;14.00;99.90;;;;;;4973969;28;20453;-77
2020/12/22 11:10:38;;;;;;;1.60;0.67;;;14.00;99.90;;;;;;4972266;28;20459;-79
2020/12/22 11:13:04;;;;;;;1.23;0.50;;;14.00;99.90;;;;;;4988818;28;20471;-78
2020/12/22 11:15:30;;;;;;;2.27;0.87;;;14.00;99.90;;;;;;4975618;28;20455;-78
2020/12/22 11:17:56;;;;;;;2.50;0.83;;;14.20;99.90;;;;;;4976413;28;20419;-79
2020/12/22 11:20:22;;;;;;;1.27;0.77;;;14.20;99.90;;;;;;4975218;28;20974;-78
2020/12/22 11:22:49;;;;;;;1.67;0.60;;;14.20;99.90;;;;;;4976679;28;20224;-80
2020/12/22 11:25:15;;;;;;;4.00;1.47;;;14.20;99.90;;;;;;4975310;28;20831;-76
2020/12/22 11:27:42;;;;;;;2.33;0.77;;;14.30;99.90;;;;;;4978144;28;20427;-77
2020/12/22 11:30:09;;;;;;;2.70;1.20;;;14.40;99.90;;;;;;4978567;28;21168;-78
2020/12/22 11:32:35;;;;;;;4.30;1.40;;;14.30;99.90;;;;;;4977382;28;20467;-77
2020/12/22 11:35:03;;;;;;;1.60;1.40;;;14.40;99.90;;;;;;4977624;28;21200;-77
2020/12/22 11:37:29;;;;;;;1.10;0.80;;;14.20;99.90;;;;;;4977348;28;20421;-78
2020/12/22 11:39:54;;;;;;;2.30;0.70;;;14.10;99.90;;;;;;4977357;28;20484;-77
2020/12/22 11:42:20;;;;;;;1.90;1.17;;;14.10;99.90;;;;;;4977974;28;20193;-77
2020/12/22 11:44:47;;;;;;;1.57;0.83;;;14.00;99.90;;;;;;4977594;28;20352;-76
2020/12/22 11:47:13;;;;;;;3.70;1.20;;;14.10;99.90;;;;;;4975744;28;20961;-76
2020/12/22 11:49:39;;;;;;;4.70;1.37;;;14.10;99.90;;;;;;4974414;28;20552;-79
2020/12/22 11:52:05;;;;;;;1.67;1.17;;;14.10;99.90;;;;;;4972748;28;20461;-78
2020/12/22 11:54:31;;;;;;;1.40;0.93;;;14.20;99.90;;;;;;4975454;28;20450;-79
2020/12/22 11:57:40;;;;;;;3.00;1.33;;;14.30;99.90;;;;;;4976551;28;20730;-79
2020/12/22 12:00:19;;;;;;;2.70;0.80;;;14.20;99.90;;;;;;4968072;28;21019;-77
2020/12/22 12:02:45;;;;;;;1.80;1.13;;;14.20;99.90;;;;;;4968623;28;21694;-78
2020/12/22 12:05:11;;;;;;;1.40;1.17;;;14.20;99.90;;;;;;4974302;28;20292;-79
2020/12/22 12:07:37;;;;;;;1.80;1.03;;;14.20;99.90;;;;;;4976540;28;20175;-79
2020/12/22 12:10:03;;;;;;;4.67;1.20;;;14.10;99.90;;;;;;4973087;28;20888;-79
2020/12/22 12:12:29;;;;;;;2.60;1.20;;;14.10;99.90;;;;;;4971217;28;20212;-76
2020/12/22 12:14:55;;;;;;;2.90;0.90;;;14.10;99.90;;;;;;4962427;28;20966;-78
2020/12/22 12:17:21;;;;;;;2.53;1.53;;;14.10;99.90;;;;;;4970239;28;20215;-78
2020/12/22 12:19:47;;;;;;;3.93;1.13;;;14.10;99.90;;;;;;4971691;28;20455;-78
2020/12/22 12:22:12;;;;;;;1.73;1.30;;;14.10;99.90;;;;;;4971949;28;20450;-78
2020/12/22 12:24:38;;;;;;;3.33;1.47;;;14.00;99.90;;;;;;4972045;28;20238;-79
2020/12/22 12:27:04;;;;;;;1.83;1.10;;;14.00;99.90;;;;;;4963512;28;20424;-79
2020/12/22 12:29:29;;;;;;;1.97;1.27;;;14.00;99.90;;;;;;4968136;28;20222;-79
2020/12/22 12:31:55;;;;;;;4.60;1.47;;;13.90;99.90;;;;;;4970847;28;20552;-81
2020/12/22 12:34:21;;;;;;;3.60;2.10;;;14.00;99.90;;;;;;4970350;28;20268;-80
2020/12/22 12:36:46;;;;;;;3.00;1.50;;;13.90;99.90;;;;;;4971546;28;20177;-78
2020/12/22 12:39:12;;;;;;;2.40;1.63;;;14.00;99.90;;;;;;4968997;28;20176;-78
2020/12/22 12:41:38;;;;;;;2.80;1.40;;;14.00;99.90;;;;;;4970135;28;20246;-78
2020/12/22 12:44:04;;;;;;;3.13;1.83;;;14.10;99.90;;;;;;4991095;28;20633;-79
2020/12/22 12:46:29;;;;;;;7.27;2.17;;;14.20;99.90;;;;;;4964520;28;20206;-76
2020/12/22 12:48:55;;;;;;;3.07;1.80;;;14.20;99.90;;;;;;4965182;28;20506;-78
2020/12/22 12:51:21;;;;;;;3.63;1.70;;;14.20;99.90;;;;;;4967717;28;20238;-78
2020/12/22 12:53:47;;;;;;;3.30;1.67;;;14.30;99.90;;;;;;4969282;28;20635;-76